sensor_id;sensor_type;location;lat;lon;timestamp;P1;durP1;ratioP1;P2;durP2;ratioP2
75787;SDS011;64406;50.024;14.492;2023-07-02T00:00:29;4.75;;;2.20;;
75787;SDS011;64406;50.024;14.492;2023-07-02T00:03:14;4.68;;;2.28;;
75787;SDS011;64406;50.024;14.492;2023-07-02T00:05:40;3.33;;;1.60;;
75787;SDS011;64406;50.024;14.492;2023-07-02T00:08:06;5.35;;;1.95;;
75787;SDS011;64406;50.024;14.492;2023-07-02T00:10:32;2.80;;;1.55;;
75787;SDS011;64406;50.024;14.492;2023-07-02T00:12:57;2.40;;;1.63;;
75787;SDS011;64406;50.024;14.492;2023-07-02T00:15:23;2.13;;;1.40;;
75787;SDS011;64406;50.024;14.492;2023-07-02T00:17:48;1.90;;;1.23;;
75787;SDS011;64406;50.024;14.492;2023-07-02T00:20:14;3.90;;;1.70;;
75787;SDS011;64406;50.024;14.492;2023-07-02T00:22:42;3.35;;;1.50;;
75787;SDS011;64406;50.024;14.492;2023-07-02T00:25:10;2.15;;;1.55;;
75787;SDS011;64406;50.024;14.492;2023-07-02T00:27:35;3.35;;;1.40;;
75787;SDS011;64406;50.024;14.492;2023-07-02T00:30:02;1.63;;;1.30;;
75787;SDS011;64406;50.024;14.492;2023-07-02T00:32:28;1.30;;;1.17;;
75787;SDS011;64406;50.024;14.492;2023-07-02T00:34:54;1.40;;;1.10;;
75787;SDS011;64406;50.024;14.492;2023-07-02T00:37:19;2.33;;;1.30;;
75787;SDS011;64406;50.024;14.492;2023-07-02T00:39:45;1.05;;;0.98;;
75787;SDS011;64406;50.024;14.492;2023-07-02T00:42:11;3.70;;;1.20;;
75787;SDS011;64406;50.024;14.492;2023-07-02T00:44:37;1.77;;;1.20;;
75787;SDS011;64406;50.024;14.492;2023-07-02T00:47:09;1.75;;;0.90;;
75787;SDS011;64406;50.024;14.492;2023-07-02T00:49:35;1.83;;;0.98;;
75787;SDS011;64406;50.024;14.492;2023-07-02T00:52:00;3.25;;;1.30;;
75787;SDS011;64406;50.024;14.492;2023-07-02T00:54:29;1.60;;;1.13;;
75787;SDS011;64406;50.024;14.492;2023-07-02T00:56:55;1.10;;;1.00;;
75787;SDS011;64406;50.024;14.492;2023-07-02T00:59:21;3.60;;;1.45;;
75787;SDS011;64406;50.024;14.492;2023-07-02T01:01:47;1.80;;;1.00;;
75787;SDS011;64406;50.024;14.492;2023-07-02T01:04:19;2.38;;;1.33;;
75787;SDS011;64406;50.024;14.492;2023-07-02T01:06:44;1.63;;;1.10;;
75787;SDS011;64406;50.024;14.492;2023-07-02T01:09:10;1.05;;;0.95;;
75787;SDS011;64406;50.024;14.492;2023-07-02T01:16:51;1.25;;;1.15;;
75787;SDS011;64406;50.024;14.492;2023-07-02T01:22:17;3.35;;;1.30;;
75787;SDS011;64406;50.024;14.492;2023-07-02T01:24:43;2.70;;;1.10;;
75787;SDS011;64406;50.024;14.492;2023-07-02T01:27:12;1.95;;;1.00;;
75787;SDS011;64406;50.024;14.492;2023-07-02T01:29:38;2.70;;;1.25;;
75787;SDS011;64406;50.024;14.492;2023-07-02T01:32:04;1.95;;;1.27;;
75787;SDS011;64406;50.024;14.492;2023-07-02T01:34:30;0.98;;;0.90;;
75787;SDS011;64406;50.024;14.492;2023-07-02T01:36:56;1.85;;;1.42;;
75787;SDS011;64406;50.024;14.492;2023-07-02T01:39:22;2.95;;;0.98;;
75787;SDS011;64406;50.024;14.492;2023-07-02T01:41:51;1.45;;;1.17;;
75787;SDS011;64406;50.024;14.492;2023-07-02T01:44:18;2.92;;;1.52;;
75787;SDS011;64406;50.024;14.492;2023-07-02T01:46:45;3.13;;;1.20;;
75787;SDS011;64406;50.024;14.492;2023-07-02T01:49:14;3.70;;;1.30;;
75787;SDS011;64406;50.024;14.492;2023-07-02T01:51:40;1.52;;;1.33;;
75787;SDS011;64406;50.024;14.492;2023-07-02T01:54:10;2.22;;;1.20;;
75787;SDS011;64406;50.024;14.492;2023-07-02T01:56:36;2.78;;;1.40;;
75787;SDS011;64406;50.024;14.492;2023-07-02T01:59:01;1.33;;;1.10;;
75787;SDS011;64406;50.024;14.492;2023-07-02T02:01:27;1.33;;;1.17;;
75787;SDS011;64406;50.024;14.492;2023-07-02T02:03:53;1.23;;;1.05;;
75787;SDS011;64406;50.024;14.492;2023-07-02T02:06:18;2.03;;;1.40;;
75787;SDS011;64406;50.024;14.492;2023-07-02T02:08:44;1.83;;;1.10;;
75787;SDS011;64406;50.024;14.492;2023-07-02T02:11:28;1.75;;;1.17;;
75787;SDS011;64406;50.024;14.492;2023-07-02T02:16:19;2.50;;;1.23;;
75787;SDS011;64406;50.024;14.492;2023-07-02T02:18:45;3.40;;;1.52;;
75787;SDS011;64406;50.024;14.492;2023-07-02T02:21:11;1.35;;;1.25;;
75787;SDS011;64406;50.024;14.492;2023-07-02T02:23:37;4.40;;;1.30;;
75787;SDS011;64406;50.024;14.492;2023-07-02T02:26:02;2.50;;;1.52;;
75787;SDS011;64406;50.024;14.492;2023-07-02T02:28:28;2.60;;;1.35;;
75787;SDS011;64406;50.024;14.492;2023-07-02T02:30:53;1.95;;;1.35;;
75787;SDS011;64406;50.024;14.492;2023-07-02T02:33:20;3.28;;;1.42;;
75787;SDS011;64406;50.024;14.492;2023-07-02T02:35:46;1.77;;;1.35;;
75787;SDS011;64406;50.024;14.492;2023-07-02T02:38:12;1.20;;;1.10;;
75787;SDS011;64406;50.024;14.492;2023-07-02T02:40:39;2.47;;;1.33;;
75787;SDS011;64406;50.024;14.492;2023-07-02T02:43:05;3.85;;;1.38;;
75787;SDS011;64406;50.024;14.492;2023-07-02T02:45:31;1.65;;;1.00;;
75787;SDS011;64406;50.024;14.492;2023-07-02T02:47:56;3.42;;;1.55;;
75787;SDS011;64406;50.024;14.492;2023-07-02T02:50:22;1.95;;;1.30;;
75787;SDS011;64406;50.024;14.492;2023-07-02T02:52:48;3.45;;;1.60;;
75787;SDS011;64406;50.024;14.492;2023-07-02T02:55:13;1.75;;;1.30;;
75787;SDS011;64406;50.024;14.492;2023-07-02T02:57:39;3.47;;;1.65;;
75787;SDS011;64406;50.024;14.492;2023-07-02T03:00:05;1.60;;;1.35;;
75787;SDS011;64406;50.024;14.492;2023-07-02T03:02:32;1.90;;;1.30;;
75787;SDS011;64406;50.024;14.492;2023-07-02T03:04:58;6.38;;;1.55;;
75787;SDS011;64406;50.024;14.492;2023-07-02T03:07:28;1.40;;;1.27;;
75787;SDS011;64406;50.024;14.492;2023-07-02T03:09:54;2.47;;;1.20;;
75787;SDS011;64406;50.024;14.492;2023-07-02T03:12:19;1.98;;;1.52;;
75787;SDS011;64406;50.024;14.492;2023-07-02T03:14:45;2.88;;;1.42;;
75787;SDS011;64406;50.024;14.492;2023-07-02T03:17:13;3.38;;;1.60;;
75787;SDS011;64406;50.024;14.492;2023-07-02T03:19:38;3.65;;;1.70;;
75787;SDS011;64406;50.024;14.492;2023-07-02T03:22:04;5.10;;;1.55;;
75787;SDS011;64406;50.024;14.492;2023-07-02T03:24:30;2.17;;;1.58;;
75787;SDS011;64406;50.024;14.492;2023-07-02T03:26:55;1.70;;;1.60;;
75787;SDS011;64406;50.024;14.492;2023-07-02T03:29:21;2.35;;;1.52;;
75787;SDS011;64406;50.024;14.492;2023-07-02T03:31:47;2.75;;;1.25;;
75787;SDS011;64406;50.024;14.492;2023-07-02T03:34:12;1.75;;;1.50;;
75787;SDS011;64406;50.024;14.492;2023-07-02T03:36:38;1.58;;;1.48;;
75787;SDS011;64406;50.024;14.492;2023-07-02T03:39:04;3.22;;;1.73;;
75787;SDS011;64406;50.024;14.492;2023-07-02T03:41:31;2.55;;;1.20;;
75787;SDS011;64406;50.024;14.492;2023-07-02T03:43:56;1.58;;;1.33;;
75787;SDS011;64406;50.024;14.492;2023-07-02T03:46:22;3.03;;;1.52;;
75787;SDS011;64406;50.024;14.492;2023-07-02T03:48:47;1.90;;;1.40;;
75787;SDS011;64406;50.024;14.492;2023-07-02T03:51:13;2.03;;;1.63;;
75787;SDS011;64406;50.024;14.492;2023-07-02T03:53:40;2.45;;;1.52;;
75787;SDS011;64406;50.024;14.492;2023-07-02T03:56:06;1.80;;;1.60;;
75787;SDS011;64406;50.024;14.492;2023-07-02T03:58:32;4.03;;;1.65;;
75787;SDS011;64406;50.024;14.492;2023-07-02T04:00:58;3.15;;;1.52;;
75787;SDS011;64406;50.024;14.492;2023-07-02T04:03:24;3.17;;;1.40;;
75787;SDS011;64406;50.024;14.492;2023-07-02T04:05:50;1.92;;;1.65;;
75787;SDS011;64406;50.024;14.492;2023-07-02T04:08:16;1.80;;;1.60;;
75787;SDS011;64406;50.024;14.492;2023-07-02T04:10:42;2.97;;;1.67;;
75787;SDS011;64406;50.024;14.492;2023-07-02T04:13:07;4.43;;;1.60;;
75787;SDS011;64406;50.024;14.492;2023-07-02T04:15:33;2.45;;;1.52;;
75787;SDS011;64406;50.024;14.492;2023-07-02T04:18:00;2.20;;;1.67;;
75787;SDS011;64406;50.024;14.492;2023-07-02T04:20:25;2.17;;;1.63;;
75787;SDS011;64406;50.024;14.492;2023-07-02T04:22:51;2.03;;;1.48;;
75787;SDS011;64406;50.024;14.492;2023-07-02T04:25:17;3.70;;;1.77;;
75787;SDS011;64406;50.024;14.492;2023-07-02T04:27:43;1.70;;;1.58;;
75787;SDS011;64406;50.024;14.492;2023-07-02T04:30:10;3.10;;;1.80;;
75787;SDS011;64406;50.024;14.492;2023-07-02T04:32:36;4.85;;;2.08;;
75787;SDS011;64406;50.024;14.492;2023-07-02T04:35:05;4.10;;;2.05;;
75787;SDS011;64406;50.024;14.492;2023-07-02T04:37:31;1.90;;;1.50;;
75787;SDS011;64406;50.024;14.492;2023-07-02T04:39:57;2.53;;;1.80;;
75787;SDS011;64406;50.024;14.492;2023-07-02T04:42:22;4.10;;;2.00;;
75787;SDS011;64406;50.024;14.492;2023-07-02T04:44:55;4.15;;;1.77;;
75787;SDS011;64406;50.024;14.492;2023-07-02T04:47:20;3.03;;;2.10;;
75787;SDS011;64406;50.024;14.492;2023-07-02T04:49:46;4.07;;;1.88;;
75787;SDS011;64406;50.024;14.492;2023-07-02T04:52:12;2.55;;;2.05;;
75787;SDS011;64406;50.024;14.492;2023-07-02T04:54:37;2.80;;;2.28;;
75787;SDS011;64406;50.024;14.492;2023-07-02T04:57:03;3.25;;;2.10;;
75787;SDS011;64406;50.024;14.492;2023-07-02T04:59:29;2.85;;;1.77;;
75787;SDS011;64406;50.024;14.492;2023-07-02T05:01:55;3.13;;;1.85;;
75787;SDS011;64406;50.024;14.492;2023-07-02T05:04:20;4.90;;;1.52;;
75787;SDS011;64406;50.024;14.492;2023-07-02T05:06:46;3.70;;;1.83;;
75787;SDS011;64406;50.024;14.492;2023-07-02T05:09:12;1.92;;;1.50;;
75787;SDS011;64406;50.024;14.492;2023-07-02T05:11:37;2.17;;;1.67;;
75787;SDS011;64406;50.024;14.492;2023-07-02T05:14:03;2.92;;;1.83;;
75787;SDS011;64406;50.024;14.492;2023-07-02T05:16:29;3.15;;;2.30;;
75787;SDS011;64406;50.024;14.492;2023-07-02T05:18:54;2.63;;;1.88;;
75787;SDS011;64406;50.024;14.492;2023-07-02T05:21:20;3.28;;;1.98;;
75787;SDS011;64406;50.024;14.492;2023-07-02T05:23:46;2.42;;;2.00;;
75787;SDS011;64406;50.024;14.492;2023-07-02T05:26:13;3.38;;;2.13;;
75787;SDS011;64406;50.024;14.492;2023-07-02T05:28:38;3.30;;;2.05;;
75787;SDS011;64406;50.024;14.492;2023-07-02T05:31:04;3.13;;;1.95;;
75787;SDS011;64406;50.024;14.492;2023-07-02T05:33:29;2.90;;;2.13;;
75787;SDS011;64406;50.024;14.492;2023-07-02T05:35:57;2.25;;;1.95;;
75787;SDS011;64406;50.024;14.492;2023-07-02T05:38:23;2.60;;;2.10;;
75787;SDS011;64406;50.024;14.492;2023-07-02T05:40:49;2.30;;;2.05;;
75787;SDS011;64406;50.024;14.492;2023-07-02T05:43:15;2.63;;;1.85;;
75787;SDS011;64406;50.024;14.492;2023-07-02T05:45:41;2.92;;;1.85;;
75787;SDS011;64406;50.024;14.492;2023-07-02T05:48:06;2.25;;;2.00;;
75787;SDS011;64406;50.024;14.492;2023-07-02T05:50:32;3.97;;;2.25;;
75787;SDS011;64406;50.024;14.492;2023-07-02T05:52:58;4.45;;;2.40;;
75787;SDS011;64406;50.024;14.492;2023-07-02T05:55:23;3.30;;;2.30;;
75787;SDS011;64406;50.024;14.492;2023-07-02T05:57:49;4.10;;;2.40;;
75787;SDS011;64406;50.024;14.492;2023-07-02T06:00:14;2.20;;;1.67;;
75787;SDS011;64406;50.024;14.492;2023-07-02T06:02:40;2.97;;;2.00;;
75787;SDS011;64406;50.024;14.492;2023-07-02T06:05:06;3.65;;;2.20;;
75787;SDS011;64406;50.024;14.492;2023-07-02T06:07:32;3.22;;;2.33;;
75787;SDS011;64406;50.024;14.492;2023-07-02T06:09:57;2.25;;;1.80;;
75787;SDS011;64406;50.024;14.492;2023-07-02T06:12:23;2.17;;;1.80;;
75787;SDS011;64406;50.024;14.492;2023-07-02T06:14:49;2.90;;;2.22;;
75787;SDS011;64406;50.024;14.492;2023-07-02T06:17:14;2.22;;;2.03;;
75787;SDS011;64406;50.024;14.492;2023-07-02T06:19:40;4.57;;;2.17;;
75787;SDS011;64406;50.024;14.492;2023-07-02T06:22:06;2.55;;;2.10;;
75787;SDS011;64406;50.024;14.492;2023-07-02T06:24:32;4.68;;;2.58;;
75787;SDS011;64406;50.024;14.492;2023-07-02T06:26:57;2.20;;;2.00;;
75787;SDS011;64406;50.024;14.492;2023-07-02T06:29:23;3.25;;;2.30;;
75787;SDS011;64406;50.024;14.492;2023-07-02T06:31:52;2.72;;;2.03;;
75787;SDS011;64406;50.024;14.492;2023-07-02T06:34:17;2.70;;;2.05;;
75787;SDS011;64406;50.024;14.492;2023-07-02T06:36:43;2.53;;;2.30;;
75787;SDS011;64406;50.024;14.492;2023-07-02T06:39:08;3.30;;;2.28;;
75787;SDS011;64406;50.024;14.492;2023-07-02T06:41:35;2.72;;;2.03;;
75787;SDS011;64406;50.024;14.492;2023-07-02T06:44:01;2.92;;;1.95;;
75787;SDS011;64406;50.024;14.492;2023-07-02T06:46:27;3.70;;;2.22;;
75787;SDS011;64406;50.024;14.492;2023-07-02T06:48:53;2.10;;;1.88;;
75787;SDS011;64406;50.024;14.492;2023-07-02T06:51:20;3.08;;;2.22;;
75787;SDS011;64406;50.024;14.492;2023-07-02T06:53:46;3.00;;;1.92;;
75787;SDS011;64406;50.024;14.492;2023-07-02T06:56:12;2.58;;;2.17;;
75787;SDS011;64406;50.024;14.492;2023-07-02T06:58:44;1.73;;;1.52;;
75787;SDS011;64406;50.024;14.492;2023-07-02T07:01:09;4.28;;;2.53;;
75787;SDS011;64406;50.024;14.492;2023-07-02T07:03:35;1.90;;;1.70;;
75787;SDS011;64406;50.024;14.492;2023-07-02T07:06:01;3.60;;;2.30;;
75787;SDS011;64406;50.024;14.492;2023-07-02T07:08:27;2.83;;;2.33;;
75787;SDS011;64406;50.024;14.492;2023-07-02T07:10:53;2.33;;;2.00;;
75787;SDS011;64406;50.024;14.492;2023-07-02T07:13:19;3.53;;;2.30;;
75787;SDS011;64406;50.024;14.492;2023-07-02T07:15:45;2.95;;;1.92;;
75787;SDS011;64406;50.024;14.492;2023-07-02T07:18:10;3.00;;;2.53;;
75787;SDS011;64406;50.024;14.492;2023-07-02T07:20:36;2.58;;;1.85;;
75787;SDS011;64406;50.024;14.492;2023-07-02T07:23:04;5.10;;;1.90;;
75787;SDS011;64406;50.024;14.492;2023-07-02T07:25:30;3.65;;;2.22;;
75787;SDS011;64406;50.024;14.492;2023-07-02T07:27:57;2.83;;;2.13;;
75787;SDS011;64406;50.024;14.492;2023-07-02T07:30:24;2.47;;;2.28;;
75787;SDS011;64406;50.024;14.492;2023-07-02T07:32:50;2.80;;;1.88;;
75787;SDS011;64406;50.024;14.492;2023-07-02T07:35:16;2.63;;;2.30;;
75787;SDS011;64406;50.024;14.492;2023-07-02T07:37:43;2.60;;;2.05;;
75787;SDS011;64406;50.024;14.492;2023-07-02T07:40:08;2.92;;;2.35;;
75787;SDS011;64406;50.024;14.492;2023-07-02T07:42:34;3.47;;;2.00;;
75787;SDS011;64406;50.024;14.492;2023-07-02T07:45:00;2.88;;;2.08;;
75787;SDS011;64406;50.024;14.492;2023-07-02T07:47:27;4.97;;;2.20;;
75787;SDS011;64406;50.024;14.492;2023-07-02T07:49:53;4.70;;;2.10;;
75787;SDS011;64406;50.024;14.492;2023-07-02T07:52:19;4.15;;;2.50;;
75787;SDS011;64406;50.024;14.492;2023-07-02T07:54:45;4.60;;;2.15;;
75787;SDS011;64406;50.024;14.492;2023-07-02T07:57:11;2.22;;;2.00;;
75787;SDS011;64406;50.024;14.492;2023-07-02T07:59:37;2.33;;;1.95;;
75787;SDS011;64406;50.024;14.492;2023-07-02T08:02:02;2.78;;;2.10;;
75787;SDS011;64406;50.024;14.492;2023-07-02T08:04:28;2.58;;;1.63;;
75787;SDS011;64406;50.024;14.492;2023-07-02T08:06:54;3.47;;;1.90;;
75787;SDS011;64406;50.024;14.492;2023-07-02T08:09:20;2.60;;;2.08;;
75787;SDS011;64406;50.024;14.492;2023-07-02T08:11:46;3.92;;;2.45;;
75787;SDS011;64406;50.024;14.492;2023-07-02T08:14:12;2.00;;;1.90;;
75787;SDS011;64406;50.024;14.492;2023-07-02T08:16:38;2.10;;;1.90;;
75787;SDS011;64406;50.024;14.492;2023-07-02T08:19:03;2.72;;;2.03;;
75787;SDS011;64406;50.024;14.492;2023-07-02T08:21:29;3.33;;;2.10;;
75787;SDS011;64406;50.024;14.492;2023-07-02T08:23:55;2.63;;;2.15;;
75787;SDS011;64406;50.024;14.492;2023-07-02T08:26:22;2.92;;;2.17;;
75787;SDS011;64406;50.024;14.492;2023-07-02T08:28:48;2.47;;;2.28;;
75787;SDS011;64406;50.024;14.492;2023-07-02T08:31:14;2.78;;;1.85;;
75787;SDS011;64406;50.024;14.492;2023-07-02T08:33:40;3.10;;;1.88;;
75787;SDS011;64406;50.024;14.492;2023-07-02T08:36:05;2.28;;;2.08;;
75787;SDS011;64406;50.024;14.492;2023-07-02T08:38:31;1.90;;;1.67;;
75787;SDS011;64406;50.024;14.492;2023-07-02T08:40:57;2.10;;;1.75;;
75787;SDS011;64406;50.024;14.492;2023-07-02T08:43:23;2.60;;;1.80;;
75787;SDS011;64406;50.024;14.492;2023-07-02T08:45:51;2.05;;;1.85;;
75787;SDS011;64406;50.024;14.492;2023-07-02T08:48:18;2.63;;;1.83;;
75787;SDS011;64406;50.024;14.492;2023-07-02T08:50:48;2.67;;;1.92;;
75787;SDS011;64406;50.024;14.492;2023-07-02T08:53:14;2.15;;;1.88;;
75787;SDS011;64406;50.024;14.492;2023-07-02T08:55:41;4.97;;;1.88;;
75787;SDS011;64406;50.024;14.492;2023-07-02T08:58:07;3.90;;;2.38;;
75787;SDS011;64406;50.024;14.492;2023-07-02T09:00:36;2.80;;;2.08;;
75787;SDS011;64406;50.024;14.492;2023-07-02T09:03:15;1.83;;;1.70;;
75787;SDS011;64406;50.024;14.492;2023-07-02T09:05:47;2.95;;;2.20;;
75787;SDS011;64406;50.024;14.492;2023-07-02T09:08:23;2.25;;;1.92;;
75787;SDS011;64406;50.024;14.492;2023-07-02T09:10:52;3.75;;;1.83;;
75787;SDS011;64406;50.024;14.492;2023-07-02T09:13:18;2.67;;;2.08;;
75787;SDS011;64406;50.024;14.492;2023-07-02T09:15:44;2.40;;;1.70;;
75787;SDS011;64406;50.024;14.492;2023-07-02T09:18:17;2.67;;;2.20;;
75787;SDS011;64406;50.024;14.492;2023-07-02T09:20:43;3.72;;;1.80;;
75787;SDS011;64406;50.024;14.492;2023-07-02T09:23:09;2.47;;;1.90;;
75787;SDS011;64406;50.024;14.492;2023-07-02T09:25:38;4.03;;;2.22;;
75787;SDS011;64406;50.024;14.492;2023-07-02T09:30:50;5.20;;;2.40;;
75787;SDS011;64406;50.024;14.492;2023-07-02T09:33:16;2.65;;;2.10;;
75787;SDS011;64406;50.024;14.492;2023-07-02T09:35:42;2.30;;;2.00;;
75787;SDS011;64406;50.024;14.492;2023-07-02T09:38:09;3.53;;;2.33;;
75787;SDS011;64406;50.024;14.492;2023-07-02T09:40:37;2.13;;;1.92;;
75787;SDS011;64406;50.024;14.492;2023-07-02T09:43:11;2.13;;;1.92;;
75787;SDS011;64406;50.024;14.492;2023-07-02T09:45:37;2.58;;;2.20;;
75787;SDS011;64406;50.024;14.492;2023-07-02T09:48:04;2.13;;;1.92;;
75787;SDS011;64406;50.024;14.492;2023-07-02T09:50:31;2.80;;;1.95;;
75787;SDS011;64406;50.024;14.492;2023-07-02T09:52:58;4.40;;;2.25;;
75787;SDS011;64406;50.024;14.492;2023-07-02T09:55:24;2.88;;;2.10;;
75787;SDS011;64406;50.024;14.492;2023-07-02T09:57:50;3.05;;;2.20;;
75787;SDS011;64406;50.024;14.492;2023-07-02T10:00:15;2.10;;;1.90;;
75787;SDS011;64406;50.024;14.492;2023-07-02T10:02:41;2.13;;;1.92;;
75787;SDS011;64406;50.024;14.492;2023-07-02T10:05:24;2.65;;;2.03;;
75787;SDS011;64406;50.024;14.492;2023-07-02T10:08:13;2.63;;;2.15;;
75787;SDS011;64406;50.024;14.492;2023-07-02T10:10:40;3.60;;;1.92;;
75787;SDS011;64406;50.024;14.492;2023-07-02T10:13:06;2.30;;;1.75;;
75787;SDS011;64406;50.024;14.492;2023-07-02T10:15:31;3.20;;;2.17;;
75787;SDS011;64406;50.024;14.492;2023-07-02T10:18:03;2.92;;;2.40;;
75787;SDS011;64406;50.024;14.492;2023-07-02T10:20:33;2.47;;;2.03;;
75787;SDS011;64406;50.024;14.492;2023-07-02T10:23:04;4.60;;;2.55;;
75787;SDS011;64406;50.024;14.492;2023-07-02T10:25:31;5.45;;;2.28;;
75787;SDS011;64406;50.024;14.492;2023-07-02T10:28:00;4.60;;;2.17;;
75787;SDS011;64406;50.024;14.492;2023-07-02T10:30:33;6.13;;;2.25;;
75787;SDS011;64406;50.024;14.492;2023-07-02T10:33:13;3.83;;;2.28;;
75787;SDS011;64406;50.024;14.492;2023-07-02T10:35:41;4.57;;;2.92;;
75787;SDS011;64406;50.024;14.492;2023-07-02T10:38:17;5.03;;;2.65;;
75787;SDS011;64406;50.024;14.492;2023-07-02T10:40:44;10.05;;;2.53;;
75787;SDS011;64406;50.024;14.492;2023-07-02T10:43:10;4.15;;;2.65;;
75787;SDS011;64406;50.024;14.492;2023-07-02T10:45:36;5.53;;;3.03;;
75787;SDS011;64406;50.024;14.492;2023-07-02T10:48:08;4.57;;;2.35;;
75787;SDS011;64406;50.024;14.492;2023-07-02T10:50:35;5.40;;;3.17;;
75787;SDS011;64406;50.024;14.492;2023-07-02T10:53:01;5.03;;;3.28;;
75787;SDS011;64406;50.024;14.492;2023-07-02T10:55:28;4.22;;;3.33;;
75787;SDS011;64406;50.024;14.492;2023-07-02T10:58:04;6.13;;;3.25;;
75787;SDS011;64406;50.024;14.492;2023-07-02T11:00:31;6.38;;;3.05;;
75787;SDS011;64406;50.024;14.492;2023-07-02T11:02:57;13.85;;;3.38;;
75787;SDS011;64406;50.024;14.492;2023-07-02T11:05:25;4.30;;;2.72;;
75787;SDS011;64406;50.024;14.492;2023-07-02T11:07:51;4.80;;;2.67;;
75787;SDS011;64406;50.024;14.492;2023-07-02T11:10:22;4.70;;;2.80;;
75787;SDS011;64406;50.024;14.492;2023-07-02T11:12:48;3.55;;;2.65;;
75787;SDS011;64406;50.024;14.492;2023-07-02T11:15:14;4.57;;;2.58;;
75787;SDS011;64406;50.024;14.492;2023-07-02T11:17:45;4.72;;;3.00;;
75787;SDS011;64406;50.024;14.492;2023-07-02T11:20:11;3.92;;;2.63;;
75787;SDS011;64406;50.024;14.492;2023-07-02T11:22:39;3.50;;;2.40;;
75787;SDS011;64406;50.024;14.492;2023-07-02T11:27:35;5.32;;;3.05;;
75787;SDS011;64406;50.024;14.492;2023-07-02T11:30:01;4.38;;;2.72;;
75787;SDS011;64406;50.024;14.492;2023-07-02T11:32:26;4.68;;;3.10;;
75787;SDS011;64406;50.024;14.492;2023-07-02T11:34:55;4.05;;;2.63;;
75787;SDS011;64406;50.024;14.492;2023-07-02T11:37:21;3.55;;;2.97;;
75787;SDS011;64406;50.024;14.492;2023-07-02T11:39:47;9.02;;;2.90;;
75787;SDS011;64406;50.024;14.492;2023-07-02T11:42:13;5.15;;;3.15;;
75787;SDS011;64406;50.024;14.492;2023-07-02T11:44:40;6.20;;;3.38;;
75787;SDS011;64406;50.024;14.492;2023-07-02T11:47:06;5.90;;;2.97;;
75787;SDS011;64406;50.024;14.492;2023-07-02T11:49:31;5.35;;;3.10;;
75787;SDS011;64406;50.024;14.492;2023-07-02T11:51:57;6.55;;;3.05;;
75787;SDS011;64406;50.024;14.492;2023-07-02T11:54:22;4.18;;;2.83;;
75787;SDS011;64406;50.024;14.492;2023-07-02T11:56:48;4.25;;;3.53;;
75787;SDS011;64406;50.024;14.492;2023-07-02T11:59:14;5.93;;;3.65;;
75787;SDS011;64406;50.024;14.492;2023-07-02T12:01:40;5.25;;;3.33;;
75787;SDS011;64406;50.024;14.492;2023-07-02T12:04:05;4.63;;;2.95;;
75787;SDS011;64406;50.024;14.492;2023-07-02T12:06:33;6.18;;;3.55;;
75787;SDS011;64406;50.024;14.492;2023-07-02T12:08:59;5.07;;;2.75;;
75787;SDS011;64406;50.024;14.492;2023-07-02T12:11:26;4.97;;;3.28;;
75787;SDS011;64406;50.024;14.492;2023-07-02T12:13:51;4.32;;;3.10;;
75787;SDS011;64406;50.024;14.492;2023-07-02T12:16:17;3.95;;;2.45;;
75787;SDS011;64406;50.024;14.492;2023-07-02T12:18:42;4.75;;;3.25;;
75787;SDS011;64406;50.024;14.492;2023-07-02T12:21:08;4.35;;;2.72;;
75787;SDS011;64406;50.024;14.492;2023-07-02T12:23:34;3.40;;;2.38;;
75787;SDS011;64406;50.024;14.492;2023-07-02T12:26:00;2.92;;;2.25;;
75787;SDS011;64406;50.024;14.492;2023-07-02T12:28:25;4.95;;;2.72;;
75787;SDS011;64406;50.024;14.492;2023-07-02T12:30:51;3.80;;;2.55;;
75787;SDS011;64406;50.024;14.492;2023-07-02T12:33:16;5.78;;;2.28;;
75787;SDS011;64406;50.024;14.492;2023-07-02T12:35:42;3.78;;;2.85;;
75787;SDS011;64406;50.024;14.492;2023-07-02T12:38:08;3.45;;;2.42;;
75787;SDS011;64406;50.024;14.492;2023-07-02T12:40:34;3.63;;;2.67;;
75787;SDS011;64406;50.024;14.492;2023-07-02T12:42:59;7.13;;;3.05;;
75787;SDS011;64406;50.024;14.492;2023-07-02T12:45:25;5.30;;;2.92;;
75787;SDS011;64406;50.024;14.492;2023-07-02T12:47:51;5.60;;;2.75;;
75787;SDS011;64406;50.024;14.492;2023-07-02T12:50:17;4.50;;;2.72;;
75787;SDS011;64406;50.024;14.492;2023-07-02T12:52:42;4.40;;;3.05;;
75787;SDS011;64406;50.024;14.492;2023-07-02T12:55:08;4.80;;;2.95;;
75787;SDS011;64406;50.024;14.492;2023-07-02T12:57:34;5.03;;;2.80;;
75787;SDS011;64406;50.024;14.492;2023-07-02T13:00:00;2.97;;;2.40;;
75787;SDS011;64406;50.024;14.492;2023-07-02T13:02:25;4.13;;;3.00;;
75787;SDS011;64406;50.024;14.492;2023-07-02T13:04:51;4.80;;;3.33;;
75787;SDS011;64406;50.024;14.492;2023-07-02T13:07:17;4.38;;;3.20;;
75787;SDS011;64406;50.024;14.492;2023-07-02T13:09:43;3.22;;;2.75;;
75787;SDS011;64406;50.024;14.492;2023-07-02T13:12:09;4.07;;;2.95;;
75787;SDS011;64406;50.024;14.492;2023-07-02T13:14:35;4.40;;;3.10;;
75787;SDS011;64406;50.024;14.492;2023-07-02T13:17:01;4.80;;;2.72;;
75787;SDS011;64406;50.024;14.492;2023-07-02T13:19:30;3.55;;;2.40;;
75787;SDS011;64406;50.024;14.492;2023-07-02T13:21:55;2.95;;;2.30;;
75787;SDS011;64406;50.024;14.492;2023-07-02T13:24:22;2.97;;;2.20;;
75787;SDS011;64406;50.024;14.492;2023-07-02T13:26:48;3.42;;;2.30;;
75787;SDS011;64406;50.024;14.492;2023-07-02T13:29:13;2.20;;;1.92;;
75787;SDS011;64406;50.024;14.492;2023-07-02T13:31:39;3.35;;;2.00;;
75787;SDS011;64406;50.024;14.492;2023-07-02T13:34:05;2.88;;;2.10;;
75787;SDS011;64406;50.024;14.492;2023-07-02T13:36:30;2.97;;;2.20;;
75787;SDS011;64406;50.024;14.492;2023-07-02T13:38:56;3.13;;;1.85;;
75787;SDS011;64406;50.024;14.492;2023-07-02T13:41:21;3.15;;;2.22;;
75787;SDS011;64406;50.024;14.492;2023-07-02T13:43:47;3.20;;;2.03;;
75787;SDS011;64406;50.024;14.492;2023-07-02T13:46:13;3.60;;;1.98;;
75787;SDS011;64406;50.024;14.492;2023-07-02T13:48:39;2.17;;;1.70;;
75787;SDS011;64406;50.024;14.492;2023-07-02T13:51:04;3.47;;;1.55;;
75787;SDS011;64406;50.024;14.492;2023-07-02T13:53:30;2.97;;;1.77;;
75787;SDS011;64406;50.024;14.492;2023-07-02T13:55:57;4.28;;;2.20;;
75787;SDS011;64406;50.024;14.492;2023-07-02T13:58:22;2.67;;;1.92;;
75787;SDS011;64406;50.024;14.492;2023-07-02T14:00:48;4.55;;;2.00;;
75787;SDS011;64406;50.024;14.492;2023-07-02T14:03:14;2.80;;;1.70;;
75787;SDS011;64406;50.024;14.492;2023-07-02T14:05:40;5.15;;;1.90;;
75787;SDS011;64406;50.024;14.492;2023-07-02T14:08:05;3.30;;;1.65;;
75787;SDS011;64406;50.024;14.492;2023-07-02T14:10:31;2.45;;;1.88;;
75787;SDS011;64406;50.024;14.492;2023-07-02T14:12:57;3.00;;;2.20;;
75787;SDS011;64406;50.024;14.492;2023-07-02T14:15:23;2.15;;;1.70;;
75787;SDS011;64406;50.024;14.492;2023-07-02T14:17:50;3.72;;;1.90;;
75787;SDS011;64406;50.024;14.492;2023-07-02T14:20:15;3.55;;;2.05;;
75787;SDS011;64406;50.024;14.492;2023-07-02T14:22:41;2.17;;;1.70;;
75787;SDS011;64406;50.024;14.492;2023-07-02T14:25:06;2.10;;;1.90;;
75787;SDS011;64406;50.024;14.492;2023-07-02T14:27:32;2.65;;;1.83;;
75787;SDS011;64406;50.024;14.492;2023-07-02T14:29:58;2.90;;;2.10;;
75787;SDS011;64406;50.024;14.492;2023-07-02T14:32:26;2.00;;;1.80;;
75787;SDS011;64406;50.024;14.492;2023-07-02T14:34:51;2.45;;;1.77;;
75787;SDS011;64406;50.024;14.492;2023-07-02T14:37:17;5.20;;;2.25;;
75787;SDS011;64406;50.024;14.492;2023-07-02T14:39:43;2.35;;;1.80;;
75787;SDS011;64406;50.024;14.492;2023-07-02T14:42:08;4.55;;;1.98;;
75787;SDS011;64406;50.024;14.492;2023-07-02T14:44:35;2.17;;;1.70;;